createdAt,value
2018-06-29T00:00:03.922Z,9.00
2018-06-29T00:02:32.434Z,9.00
2018-06-29T00:05:00.959Z,7.83
2018-06-29T00:07:29.455Z,11.37
2018-06-29T00:09:58.015Z,9.03
2018-06-29T00:12:26.494Z,9.47
2018-06-29T00:14:55.618Z,12.97
2018-06-29T00:17:24.305Z,12.93
2018-06-29T00:19:52.935Z,9.57
2018-06-29T00:22:21.612Z,10.10
2018-06-29T00:24:51.058Z,8.77
2018-06-29T00:27:19.749Z,11.30
2018-06-29T00:29:48.575Z,11.27
2018-06-29T00:32:17.365Z,10.77
2018-06-29T00:37:08.457Z,10.57
2018-06-29T00:39:36.960Z,8.83
2018-06-29T00:42:05.647Z,13.57
2018-06-29T00:44:34.134Z,12.77
2018-06-29T00:47:02.716Z,9.53
2018-06-29T00:49:31.175Z,13.63
2018-06-29T00:51:59.692Z,8.87
2018-06-29T00:54:28.180Z,9.23
2018-06-29T00:56:56.859Z,9.17
2018-06-29T00:59:25.349Z,9.37
2018-06-29T01:01:55.089Z,8.60
2018-06-29T01:04:23.271Z,10.20
2018-06-29T01:06:51.829Z,11.60
2018-06-29T01:09:20.344Z,7.33
2018-06-29T01:11:48.863Z,10.57
2018-06-29T01:14:17.668Z,8.97
2018-06-29T01:16:46.213Z,7.57
2018-06-29T01:19:15.009Z,10.20
2018-06-29T01:21:43.527Z,8.77
2018-06-29T01:24:12.095Z,8.03
2018-06-29T01:26:40.621Z,5.77
2018-06-29T01:29:09.215Z,9.67
2018-06-29T01:31:37.725Z,9.37
2018-06-29T01:34:06.263Z,9.30
2018-06-29T01:36:34.767Z,10.57
2018-06-29T01:39:03.541Z,10.07
2018-06-29T01:41:32.255Z,11.07
2018-06-29T01:44:00.732Z,7.17
2018-06-29T01:46:29.288Z,7.73
2018-06-29T01:48:57.937Z,10.30
2018-06-29T01:51:26.424Z,8.73
2018-06-29T01:53:55.049Z,8.20
2018-06-29T01:56:23.631Z,7.70
2018-06-29T01:58:52.375Z,10.33
2018-06-29T02:01:21.096Z,10.60
2018-06-29T02:03:49.958Z,7.77
2018-06-29T02:06:18.516Z,9.00
2018-06-29T02:08:47.025Z,7.72
2018-06-29T02:11:15.552Z,6.97
2018-06-29T02:13:44.154Z,8.00
2018-06-29T02:16:12.654Z,10.70
2018-06-29T02:18:41.190Z,9.10
2018-06-29T02:21:09.664Z,9.47
2018-06-29T02:23:38.234Z,8.53
2018-06-29T02:26:08.322Z,8.77
2018-06-29T02:28:36.829Z,8.00
2018-06-29T02:31:05.576Z,9.73
2018-06-29T02:33:34.121Z,8.03
2018-06-29T02:36:02.638Z,11.33
2018-06-29T02:38:31.445Z,12.03
2018-06-29T02:40:59.986Z,9.77
2018-06-29T02:43:28.619Z,7.73
2018-06-29T02:45:57.102Z,7.47
2018-06-29T02:48:25.835Z,8.30
2018-06-29T02:50:54.572Z,10.60
2018-06-29T02:53:23.092Z,7.47
2018-06-29T02:55:51.620Z,6.97
2018-06-29T02:58:20.127Z,9.17
2018-06-29T03:00:49.202Z,8.50
2018-06-29T03:03:19.325Z,9.03
2018-06-29T03:05:47.920Z,6.57
2018-06-29T03:08:16.383Z,9.90
2018-06-29T03:10:45.258Z,10.53
2018-06-29T03:13:13.755Z,10.33
2018-06-29T03:15:42.305Z,7.97
2018-06-29T03:18:10.830Z,7.67
2018-06-29T03:20:39.302Z,12.93
2018-06-29T03:23:07.813Z,7.67
2018-06-29T03:25:36.287Z,6.07
2018-06-29T03:28:05.015Z,7.23
2018-06-29T03:30:33.712Z,11.00
2018-06-29T03:33:02.777Z,9.00
2018-06-29T03:35:31.567Z,8.90
2018-06-29T03:38:00.376Z,7.83
2018-06-29T03:40:29.161Z,6.73
2018-06-29T03:42:57.579Z,6.60
2018-06-29T03:45:26.141Z,10.53
2018-06-29T03:47:54.848Z,8.67
2018-06-29T03:50:23.524Z,6.90
2018-06-29T03:52:52.042Z,7.97
2018-06-29T03:55:20.579Z,7.53
2018-06-29T03:57:49.108Z,7.97
2018-06-29T04:00:17.635Z,6.30
2018-06-29T04:02:46.624Z,9.93
2018-06-29T04:05:15.097Z,7.20
2018-06-29T04:07:43.630Z,8.63
2018-06-29T04:10:11.928Z,6.97
2018-06-29T04:12:40.431Z,7.23
2018-06-29T04:15:09.057Z,6.90
2018-06-29T04:17:37.806Z,7.37
2018-06-29T04:20:06.856Z,7.87
2018-06-29T04:22:35.405Z,7.50
2018-06-29T04:25:05.559Z,7.20
2018-06-29T04:27:34.507Z,7.90
2018-06-29T04:30:03.683Z,6.20
2018-06-29T04:32:32.634Z,6.83
2018-06-29T04:35:01.132Z,5.73
2018-06-29T04:37:29.645Z,6.63
2018-06-29T04:39:58.492Z,7.37
2018-06-29T04:42:26.976Z,6.47
2018-06-29T04:44:55.502Z,9.20
2018-06-29T04:47:24.150Z,7.70
2018-06-29T04:49:52.650Z,5.47
2018-06-29T04:52:21.148Z,7.77
2018-06-29T04:54:49.623Z,6.47
2018-06-29T04:57:18.097Z,7.00
2018-06-29T04:59:46.900Z,8.70
2018-06-29T05:02:15.483Z,6.83
2018-06-29T05:04:44.020Z,6.23
2018-06-29T05:07:12.811Z,7.57
2018-06-29T05:09:41.372Z,6.63
2018-06-29T05:12:10.047Z,6.87
2018-06-29T05:14:38.582Z,7.40
2018-06-29T05:17:07.120Z,7.33
2018-06-29T05:19:35.971Z,6.27
2018-06-29T05:22:04.606Z,6.77
2018-06-29T05:24:33.217Z,5.73
2018-06-29T05:27:01.877Z,6.23
2018-06-29T05:29:30.413Z,6.93
2018-06-29T05:31:59.245Z,7.27
2018-06-29T05:34:27.784Z,5.50
2018-06-29T05:36:56.685Z,7.73
2018-06-29T05:39:25.292Z,8.13
2018-06-29T05:41:53.827Z,5.57
2018-06-29T05:44:22.369Z,5.77
2018-06-29T05:46:51.372Z,4.90
2018-06-29T05:49:19.923Z,5.80
2018-06-29T05:51:48.585Z,6.90
2018-06-29T05:54:17.088Z,5.40
2018-06-29T05:56:45.618Z,4.47
2018-06-29T05:59:14.322Z,5.67
2018-06-29T06:01:42.902Z,6.70
2018-06-29T06:04:11.703Z,4.93
2018-06-29T06:06:40.291Z,4.87
2018-06-29T06:09:10.819Z,4.40
2018-06-29T06:11:40.014Z,6.23
2018-06-29T06:14:08.573Z,6.03
2018-06-29T06:16:37.141Z,6.20
2018-06-29T06:19:17.148Z,5.87
2018-06-29T06:21:45.877Z,7.50
2018-06-29T06:24:14.371Z,5.13
2018-06-29T06:26:42.943Z,7.27
2018-06-29T06:29:11.653Z,3.33
2018-06-29T06:31:40.159Z,4.43
2018-06-29T06:34:08.673Z,3.93
2018-06-29T06:36:37.163Z,4.43
2018-06-29T06:39:08.715Z,4.27
2018-06-29T06:41:37.321Z,5.43
2018-06-29T06:44:05.846Z,7.30
2018-06-29T06:46:34.522Z,5.07
2018-06-29T06:49:03.116Z,4.43
2018-06-29T06:51:32.157Z,4.73
2018-06-29T06:54:00.489Z,5.27
2018-06-29T06:56:29.003Z,5.20
2018-06-29T06:58:57.571Z,4.73
2018-06-29T07:01:26.375Z,3.80
2018-06-29T07:03:54.881Z,4.67
2018-06-29T07:06:23.438Z,3.73
2018-06-29T07:08:51.957Z,4.37
2018-06-29T07:11:20.471Z,3.00
2018-06-29T07:13:49.429Z,3.20
2018-06-29T07:16:17.945Z,6.00
2018-06-29T07:18:46.645Z,4.77
2018-06-29T07:21:15.251Z,5.97
2018-06-29T07:23:43.928Z,4.57
2018-06-29T07:26:12.541Z,3.63
2018-06-29T07:28:41.096Z,3.72
2018-06-29T07:31:09.618Z,5.63
2018-06-29T07:33:38.469Z,3.83
2018-06-29T07:36:07.278Z,4.73
2018-06-29T07:38:35.874Z,4.40
2018-06-29T07:41:04.362Z,6.80
2018-06-29T07:43:32.946Z,4.67
2018-06-29T07:46:01.563Z,5.10
2018-06-29T07:48:30.264Z,6.20
2018-06-29T07:50:59.043Z,3.40
2018-06-29T07:53:27.236Z,5.40
2018-06-29T07:55:56.246Z,3.27
2018-06-29T07:58:24.931Z,4.00
2018-06-29T08:00:57.730Z,4.20
2018-06-29T08:03:26.508Z,4.57
2018-06-29T08:05:55.161Z,3.80
2018-06-29T08:08:23.744Z,4.73
2018-06-29T08:10:52.303Z,5.23
2018-06-29T08:13:20.868Z,4.50
2018-06-29T08:15:49.749Z,4.57
2018-06-29T08:18:18.771Z,4.60
2018-06-29T08:20:47.268Z,3.53
2018-06-29T08:23:16.299Z,5.70
2018-06-29T08:25:44.795Z,7.27
2018-06-29T08:28:13.345Z,8.10
2018-06-29T08:30:42.101Z,11.50
2018-06-29T08:33:10.670Z,13.00
2018-06-29T08:35:39.887Z,10.40
2018-06-29T08:38:08.447Z,12.27
2018-06-29T08:40:37.154Z,10.57
2018-06-29T08:43:05.728Z,10.60
2018-06-29T08:45:34.502Z,10.30
2018-06-29T08:48:03.124Z,13.50
2018-06-29T08:50:31.833Z,16.83
2018-06-29T08:53:00.501Z,10.10
2018-06-29T08:55:29.057Z,14.57
2018-06-29T08:57:57.617Z,14.70
2018-06-29T09:00:26.145Z,15.23
2018-06-29T09:02:54.992Z,11.03
2018-06-29T09:05:23.548Z,12.50
2018-06-29T09:07:52.141Z,14.30
2018-06-29T09:10:20.656Z,12.77
2018-06-29T09:12:49.211Z,15.77
2018-06-29T09:15:17.795Z,11.07
2018-06-29T09:17:46.334Z,15.53
2018-06-29T09:20:15.052Z,12.73
2018-06-29T09:22:45.032Z,14.43
2018-06-29T09:25:14.134Z,12.97
2018-06-29T09:27:42.663Z,11.63
2018-06-29T09:30:11.455Z,13.73
2018-06-29T09:32:40.016Z,13.73
2018-06-29T09:35:08.234Z,14.87
2018-06-29T09:37:36.779Z,14.20
2018-06-29T09:40:05.415Z,16.97
2018-06-29T09:42:35.138Z,15.77
2018-06-29T09:45:03.685Z,14.20
2018-06-29T09:47:32.449Z,16.47
2018-06-29T09:50:01.072Z,16.30
2018-06-29T09:52:29.610Z,14.53
2018-06-29T09:54:58.314Z,12.93
2018-06-29T09:57:26.856Z,18.50
2018-06-29T09:59:55.271Z,16.73
2018-06-29T10:02:23.810Z,15.17
2018-06-29T10:04:52.329Z,13.83
2018-06-29T10:07:20.998Z,15.07
2018-06-29T10:09:49.745Z,11.47
2018-06-29T10:12:18.329Z,15.90
2018-06-29T10:14:46.824Z,14.63
2018-06-29T10:17:15.387Z,14.20
2018-06-29T10:19:44.314Z,18.93
2018-06-29T10:22:12.864Z,13.70
2018-06-29T10:24:41.440Z,10.30
2018-06-29T10:27:10.011Z,11.77
2018-06-29T10:29:38.536Z,15.50
2018-06-29T10:32:07.001Z,13.83
2018-06-29T10:34:35.544Z,10.87
2018-06-29T10:37:04.203Z,12.10
2018-06-29T10:39:32.746Z,11.67
2018-06-29T10:42:01.299Z,8.80
2018-06-29T10:44:30.042Z,11.73
2018-06-29T10:46:58.814Z,13.03
2018-06-29T10:49:27.550Z,12.03
2018-06-29T10:51:56.068Z,10.40
2018-06-29T10:54:24.330Z,11.60
2018-06-29T10:56:52.907Z,13.23
2018-06-29T10:59:21.474Z,13.00
2018-06-29T11:01:49.983Z,11.07
2018-06-29T11:04:18.683Z,14.47
2018-06-29T11:06:47.233Z,13.53
2018-06-29T11:09:15.867Z,13.57
2018-06-29T11:11:44.421Z,12.20
2018-06-29T11:14:13.059Z,13.00
2018-06-29T11:16:41.744Z,9.80
2018-06-29T11:19:10.300Z,14.90
2018-06-29T11:21:38.827Z,12.60
2018-06-29T11:24:07.804Z,14.00
2018-06-29T11:26:36.443Z,12.63
2018-06-29T11:29:04.962Z,8.43
2018-06-29T11:31:33.506Z,14.73
2018-06-29T11:34:02.258Z,9.77
2018-06-29T11:36:30.833Z,10.63
2018-06-29T11:38:59.413Z,11.07
2018-06-29T11:41:27.967Z,10.70
2018-06-29T11:43:56.446Z,10.00
2018-06-29T11:46:24.975Z,11.83
2018-06-29T11:48:53.253Z,7.60
2018-06-29T11:51:21.797Z,14.17
2018-06-29T11:53:50.365Z,11.20
2018-06-29T11:56:19.394Z,13.93
2018-06-29T11:58:48.077Z,8.47
2018-06-29T12:03:50.942Z,10.83
2018-06-29T12:06:19.481Z,12.07
2018-06-29T12:08:48.116Z,10.40
2018-06-29T12:11:16.622Z,10.20
2018-06-29T12:13:45.164Z,8.60
2018-06-29T12:16:13.687Z,15.20
2018-06-29T12:18:42.186Z,8.13
2018-06-29T12:21:10.690Z,8.27
2018-06-29T12:23:39.350Z,12.47
2018-06-29T12:26:08.316Z,8.13
2018-06-29T12:28:36.878Z,9.83
2018-06-29T12:31:05.938Z,9.87
2018-06-29T12:33:34.931Z,10.97
2018-06-29T12:36:03.636Z,9.60
2018-06-29T12:38:32.300Z,11.27
2018-06-29T12:41:01.696Z,7.37
2018-06-29T12:43:30.254Z,8.80
2018-06-29T12:45:59.047Z,8.17
2018-06-29T12:48:27.871Z,7.80
2018-06-29T12:50:56.678Z,10.83
2018-06-29T12:53:25.646Z,8.60
2018-06-29T12:55:54.248Z,7.83
2018-06-29T12:58:22.925Z,9.30
2018-06-29T13:00:51.687Z,5.27
2018-06-29T13:03:20.449Z,6.30
2018-06-29T13:05:49.034Z,7.67
2018-06-29T13:08:18.780Z,6.10
2018-06-29T13:10:47.334Z,7.00
2018-06-29T13:13:15.901Z,7.57
2018-06-29T13:15:44.485Z,6.23
2018-06-29T13:18:13.169Z,7.67
2018-06-29T13:20:41.828Z,6.33
2018-06-29T13:23:10.373Z,8.87
2018-06-29T13:25:38.897Z,5.33
2018-06-29T13:28:07.366Z,6.70
2018-06-29T13:30:35.976Z,7.50
2018-06-29T13:33:04.548Z,10.30
2018-06-29T13:35:32.967Z,5.27
2018-06-29T13:38:01.701Z,4.33
2018-06-29T13:40:30.230Z,8.60
2018-06-29T13:42:58.782Z,7.13
2018-06-29T13:45:27.393Z,6.87
2018-06-29T13:47:55.940Z,4.40
2018-06-29T13:50:24.542Z,5.03
2018-06-29T13:52:53.239Z,6.80
2018-06-29T13:55:21.762Z,5.33
2018-06-29T13:57:50.284Z,7.47
2018-06-29T14:00:18.786Z,5.03
2018-06-29T14:02:47.433Z,4.97
2018-06-29T14:05:15.946Z,4.60
2018-06-29T14:07:44.480Z,5.07
2018-06-29T14:10:13.264Z,6.63
2018-06-29T14:12:41.767Z,6.70
2018-06-29T14:15:11.329Z,6.00
2018-06-29T14:17:39.863Z,4.83
2018-06-29T14:20:08.390Z,4.67
2018-06-29T14:22:37.115Z,5.47
2018-06-29T14:25:06.060Z,12.70
2018-06-29T14:27:34.716Z,6.10
2018-06-29T14:30:03.584Z,3.73
2018-06-29T14:32:32.175Z,6.17
2018-06-29T14:35:00.729Z,9.00
2018-06-29T14:37:29.078Z,7.63
2018-06-29T14:39:57.585Z,8.03
2018-06-29T14:42:26.215Z,6.80
2018-06-29T14:44:54.902Z,7.07
2018-06-29T14:47:23.516Z,6.07
2018-06-29T14:49:52.085Z,5.03
2018-06-29T14:52:20.647Z,4.33
2018-06-29T14:54:49.143Z,6.10
2018-06-29T14:57:18.027Z,5.47
2018-06-29T14:59:46.835Z,5.10
2018-06-29T15:02:15.633Z,4.47
2018-06-29T15:04:44.882Z,6.73
2018-06-29T15:07:13.480Z,5.90
2018-06-29T15:09:42.179Z,7.07
2018-06-29T15:12:10.799Z,4.23
2018-06-29T15:14:39.379Z,5.30
2018-06-29T15:17:07.665Z,4.87
2018-06-29T15:19:38.329Z,6.13
2018-06-29T15:22:07.912Z,5.30
2018-06-29T15:24:36.717Z,5.73
2018-06-29T15:27:05.273Z,4.47
2018-06-29T15:29:33.829Z,6.93
2018-06-29T15:32:02.439Z,5.60
2018-06-29T15:34:30.986Z,8.43
2018-06-29T15:36:59.556Z,11.33
2018-06-29T15:39:28.058Z,7.83
2018-06-29T15:41:56.600Z,7.63
2018-06-29T15:44:25.167Z,6.73
2018-06-29T15:46:53.926Z,6.47
2018-06-29T15:49:22.463Z,7.60
2018-06-29T15:51:51.013Z,4.80
2018-06-29T15:54:19.566Z,5.83
2018-06-29T15:56:47.775Z,6.43
2018-06-29T15:59:16.334Z,8.97
2018-06-29T16:01:44.963Z,6.27
2018-06-29T16:04:13.472Z,5.93
2018-06-29T16:06:42.513Z,6.37
2018-06-29T16:09:11.344Z,6.13
2018-06-29T16:11:39.881Z,6.60
2018-06-29T16:14:08.564Z,7.27
2018-06-29T16:16:37.256Z,7.67
2018-06-29T16:19:05.909Z,6.80
2018-06-29T16:21:34.514Z,7.87
2018-06-29T16:24:03.020Z,8.50
2018-06-29T16:26:31.527Z,7.03
2018-06-29T16:29:02.206Z,8.83
2018-06-29T16:31:30.677Z,9.30
2018-06-29T16:33:59.569Z,8.33
2018-06-29T16:36:28.110Z,9.37
2018-06-29T16:38:56.653Z,10.07
2018-06-29T16:41:25.180Z,10.00
2018-06-29T16:43:54.574Z,7.47
2018-06-29T16:46:22.794Z,6.43
2018-06-29T16:48:51.314Z,9.53
2018-06-29T16:51:20.000Z,8.83
2018-06-29T16:53:48.532Z,8.63
2018-06-29T16:56:17.133Z,10.23
2018-06-29T16:58:45.972Z,7.77
2018-06-29T17:01:14.496Z,11.60
2018-06-29T17:03:43.033Z,10.83
2018-06-29T17:06:11.580Z,8.87
2018-06-29T17:08:40.189Z,9.73
2018-06-29T17:11:08.778Z,7.83
2018-06-29T17:13:37.956Z,12.47
2018-06-29T17:16:06.590Z,10.73
2018-06-29T17:18:35.129Z,10.67
2018-06-29T17:21:03.639Z,10.53
2018-06-29T17:23:32.220Z,10.70
2018-06-29T17:26:00.750Z,10.33
2018-06-29T17:28:29.311Z,11.73
2018-06-29T17:30:57.849Z,10.27
2018-06-29T17:33:32.054Z,10.47
2018-06-29T17:35:54.737Z,12.53
2018-06-29T17:38:23.518Z,10.63
2018-06-29T17:40:52.044Z,9.67
2018-06-29T17:43:20.572Z,11.83
2018-06-29T17:45:49.095Z,8.83
2018-06-29T17:48:17.665Z,12.87
2018-06-29T17:50:46.196Z,16.63
2018-06-29T17:53:14.738Z,14.67
2018-06-29T17:55:43.270Z,12.73
2018-06-29T17:58:11.837Z,12.70
2018-06-29T18:00:40.713Z,12.63
2018-06-29T18:03:09.226Z,13.27
2018-06-29T18:05:37.804Z,13.50
2018-06-29T18:08:06.161Z,14.47
2018-06-29T18:10:34.408Z,17.90
2018-06-29T18:13:03.035Z,12.63
2018-06-29T18:15:31.731Z,14.93
2018-06-29T18:18:00.394Z,24.37
2018-06-29T18:20:28.889Z,21.07
2018-06-29T18:22:57.647Z,17.43
2018-06-29T18:25:26.193Z,15.27
2018-06-29T18:27:54.850Z,16.77
2018-06-29T18:30:23.738Z,15.90
2018-06-29T18:32:52.257Z,14.93
2018-06-29T18:35:20.765Z,14.27
2018-06-29T18:37:49.870Z,18.50
2018-06-29T18:40:18.206Z,17.23
2018-06-29T18:42:46.952Z,16.63
2018-06-29T18:45:15.492Z,16.63
2018-06-29T18:47:44.055Z,19.87
2018-06-29T18:50:12.592Z,20.67
2018-06-29T18:52:41.384Z,16.43
2018-06-29T18:55:10.693Z,18.70
2018-06-29T18:57:39.315Z,18.13
2018-06-29T19:00:07.816Z,17.57
2018-06-29T19:02:36.344Z,17.43
2018-06-29T19:05:05.583Z,18.03
2018-06-29T19:07:34.465Z,19.43
2018-06-29T19:10:02.961Z,19.67
2018-06-29T19:12:31.519Z,17.83
2018-06-29T19:15:00.180Z,16.70
2018-06-29T19:17:28.740Z,15.33
2018-06-29T19:19:57.539Z,15.10
2018-06-29T19:22:26.059Z,17.60
2018-06-29T19:24:54.624Z,15.43
2018-06-29T19:27:23.158Z,19.13
2018-06-29T19:29:51.729Z,17.37
2018-06-29T19:32:20.269Z,18.33
2018-06-29T19:34:49.129Z,17.53
2018-06-29T19:37:17.707Z,18.97
2018-06-29T19:39:46.255Z,16.07
2018-06-29T19:42:14.745Z,15.53
2018-06-29T19:44:43.527Z,19.87
2018-06-29T19:47:12.173Z,15.93
2018-06-29T19:49:40.712Z,15.27
2018-06-29T19:52:09.258Z,18.63
2018-06-29T19:54:38.380Z,16.67
2018-06-29T19:57:07.599Z,17.27
2018-06-29T19:59:36.120Z,17.33
2018-06-29T20:02:04.685Z,14.67
2018-06-29T20:04:33.159Z,15.90
2018-06-29T20:07:01.921Z,13.53
2018-06-29T20:09:30.668Z,14.40
2018-06-29T20:11:59.196Z,14.57
2018-06-29T20:14:27.687Z,19.13
2018-06-29T20:16:56.353Z,16.80
2018-06-29T20:19:24.914Z,20.83
2018-06-29T20:21:53.559Z,17.63
2018-06-29T20:24:22.087Z,19.67
2018-06-29T20:26:51.092Z,18.77
2018-06-29T20:29:19.936Z,17.77
2018-06-29T20:31:49.067Z,22.47
2018-06-29T20:34:17.761Z,19.23
2018-06-29T20:36:46.274Z,15.17
2018-06-29T20:39:14.847Z,16.30
2018-06-29T20:41:43.557Z,15.33
2018-06-29T20:44:12.042Z,14.30
2018-06-29T20:46:40.777Z,16.50
2018-06-29T20:49:09.508Z,16.40
2018-06-29T20:51:38.420Z,19.10
2018-06-29T20:54:07.402Z,15.70
2018-06-29T20:56:35.921Z,15.60
2018-06-29T20:59:04.918Z,17.97
2018-06-29T21:01:33.476Z,15.90
2018-06-29T21:04:01.962Z,15.03
2018-06-29T21:06:30.855Z,18.70
2018-06-29T21:08:59.436Z,15.70
2018-06-29T21:11:27.982Z,18.63
2018-06-29T21:13:56.278Z,15.30
2018-06-29T21:16:24.828Z,13.57
2018-06-29T21:18:53.495Z,14.17
2018-06-29T21:21:22.114Z,15.07
2018-06-29T21:23:50.301Z,18.00
2018-06-29T21:26:18.821Z,19.60
2018-06-29T21:28:47.346Z,18.10
2018-06-29T21:31:15.913Z,13.87
2018-06-29T21:33:44.469Z,17.70
2018-06-29T21:36:12.963Z,15.60
2018-06-29T21:38:41.245Z,16.70
2018-06-29T21:41:09.727Z,16.03
2018-06-29T21:43:38.104Z,14.23
2018-06-29T21:46:06.429Z,15.63
2018-06-29T21:48:34.943Z,17.23
2018-06-29T21:51:03.549Z,16.70
2018-06-29T21:53:31.785Z,13.40
2018-06-29T21:56:00.340Z,14.10
2018-06-29T21:58:29.116Z,17.77
2018-06-29T22:00:57.714Z,22.00
2018-06-29T22:03:26.240Z,15.57
2018-06-29T22:05:54.782Z,16.00
2018-06-29T22:08:23.311Z,19.03
2018-06-29T22:10:52.178Z,22.37
2018-06-29T22:13:20.801Z,19.70
2018-06-29T22:15:49.517Z,20.30
2018-06-29T22:18:18.335Z,16.90
2018-06-29T22:20:46.865Z,20.37
2018-06-29T22:23:15.545Z,16.30
2018-06-29T22:25:44.101Z,16.67
2018-06-29T22:28:12.909Z,23.50
2018-06-29T22:30:41.441Z,17.60
2018-06-29T22:33:10.331Z,19.27
2018-06-29T22:35:38.884Z,20.73
2018-06-29T22:38:07.390Z,18.43
2018-06-29T22:40:35.946Z,21.87
2018-06-29T22:43:04.508Z,24.60
2018-06-29T22:45:33.117Z,22.63
2018-06-29T22:48:01.781Z,18.40
2018-06-29T22:50:30.366Z,20.17
2018-06-29T22:52:59.039Z,26.50
2018-06-29T22:55:27.549Z,18.30
2018-06-29T22:57:56.093Z,19.43
2018-06-29T23:00:24.873Z,20.53
2018-06-29T23:02:58.213Z,23.07
2018-06-29T23:05:26.748Z,26.30
2018-06-29T23:07:55.319Z,25.80
2018-06-29T23:10:24.133Z,22.87
2018-06-29T23:12:52.724Z,25.70
2018-06-29T23:15:21.486Z,22.37
2018-06-29T23:17:50.115Z,19.03
2018-06-29T23:20:18.724Z,21.67
2018-06-29T23:22:47.208Z,23.20
2018-06-29T23:25:15.753Z,22.43
2018-06-29T23:27:45.053Z,21.90
2018-06-29T23:30:13.588Z,20.10
2018-06-29T23:32:42.410Z,26.40
2018-06-29T23:35:10.996Z,23.23
2018-06-29T23:37:39.754Z,21.80
2018-06-29T23:40:08.477Z,20.80
2018-06-29T23:42:37.136Z,22.30
2018-06-29T23:45:06.308Z,21.60
2018-06-29T23:47:35.185Z,22.33
2018-06-29T23:50:03.977Z,22.43
2018-06-29T23:52:32.554Z,19.97
2018-06-29T23:55:01.201Z,24.53
2018-06-29T23:57:29.866Z,21.07
2018-06-29T23:59:58.521Z,24.83
